Terminal Aerodrome Forecast
Issued by NWS Louisville, KY

Home | Current Version | Previous Version | Text Only | Print | Product List | Glossary On
Versions: 1 2 3 4 5 6 7 8 9 10 11 12 13 14 15 16
479
FTUS43 KLMK 240919 AAA
TAFLEX
TAF AMD
KLEX 240919Z 2409/2506 07010KT P6SM -RA SCT025 OVC040
      TEMPO 2411/2413 4SM -SHRA OVC025
     FM241300 09009KT P6SM -RA OVC025
      TEMPO 2414/2417 5SM -SHRA BR BKN017
     FM241700 VRB06KT P6SM VCSH OVC017
     FM242100 01007KT P6SM OVC015 PROB30 2421/2503 4SM -SHRA OVC012
     FM250300 35009KT 6SM BR OVC007=

USA.gov is the U.S. government's official web portal to all federal, state and local government web resources and services.